Time;durP1;ratioP1;P1;durP2;ratioP2;P2;SDS_P1;SDS_P2;PMS_P1;PMS_P2;Temp;Humidity;BMP_temperature;BMP_pressure;BME280_temperature;BME280_humidity;BME280_pressure;Samples;Min_cycle;Max_cycle;Signal;HPM_P1;HPM_P2
2022/08/06 00:02:05;;;;;;;16.10;11.50;;;;;;;22.95;66.20;99259.02;25064;1313;3026799;-64
2022/08/06 00:04:34;;;;;;;19.10;12.50;;;;;;;22.70;66.62;99256.70;25094;1312;3026442;-69
2022/08/06 00:07:03;;;;;;;20.50;12.60;;;;;;;22.50;66.98;99260.61;25097;1312;3027133;-65
2022/08/06 00:09:33;;;;;;;23.40;12.10;;;;;;;22.27;67.97;99263.14;25086;1312;3050898;-62
2022/08/06 00:12:03;;;;;;;20.20;13.20;;;;;;;22.15;68.08;99257.89;25081;1312;3029848;-67
2022/08/06 00:14:32;;;;;;;13.30;8.60;;;;;;;21.99;69.17;99261.30;25104;1313;3028432;-68
2022/08/06 00:17:01;;;;;;;16.00;9.10;;;;;;;22.45;68.53;99261.89;25092;1313;3026533;-65
2022/08/06 00:19:30;;;;;;;25.20;10.60;;;;;;;22.93;66.84;99261.71;25084;1313;3054841;-65
2022/08/06 00:21:59;;;;;;;21.40;10.60;;;;;;;22.91;66.26;99261.30;25090;1313;3026430;-65
2022/08/06 00:24:28;;;;;;;20.00;10.40;;;;;;;22.83;66.56;99258.96;25086;1312;3053759;-64
2022/08/06 00:26:57;;;;;;;17.10;11.60;;;;;;;22.59;67.09;99262.64;25145;1312;3026483;-62
2022/08/06 00:29:26;;;;;;;18.70;11.70;;;;;;;22.45;67.48;99266.55;25046;1313;3051077;-69
2022/08/06 00:31:55;;;;;;;27.80;13.80;;;;;;;22.22;68.92;99264.91;25128;1312;3026440;-61
2022/08/06 00:34:24;;;;;;;19.10;9.90;;;;;;;22.10;70.04;99257.58;25078;1312;3068812;-65
2022/08/06 00:36:53;;;;;;;14.60;10.10;;;;;;;22.52;69.54;99252.29;25100;1312;3026769;-68
2022/08/06 00:39:22;;;;;;;19.70;10.20;;;;;;;22.97;68.44;99255.93;25136;1312;3053131;-66
2022/08/06 00:41:51;;;;;;;19.10;10.70;;;;;;;22.99;67.63;99254.23;25102;1312;3026308;-65
2022/08/06 00:44:20;;;;;;;19.40;11.00;;;;;;;22.77;67.81;99254.36;25088;1315;3054974;-65
2022/08/06 00:46:49;;;;;;;15.80;11.40;;;;;;;22.62;68.04;99259.07;25085;1315;3026976;-62
2022/08/06 00:49:18;;;;;;;18.10;11.20;;;;;;;22.40;68.54;99261.11;25080;1312;3053042;-65
2022/08/06 00:51:47;;;;;;;19.00;12.00;;;;;;;22.15;69.79;99257.69;25085;1315;3026611;-65
2022/08/06 00:54:16;;;;;;;17.10;7.80;;;;;;;22.01;70.11;99255.70;25086;1312;3058167;-61
2022/08/06 00:56:45;;;;;;;13.50;9.20;;;;;;;22.52;69.17;99258.95;25079;1313;3026574;-61
2022/08/06 00:59:14;;;;;;;23.40;9.90;;;;;;;22.90;67.81;99255.98;25120;1312;3055378;-65
2022/08/06 01:01:43;;;;;;;16.00;10.30;;;;;;;22.94;67.62;99256.98;25090;1312;3026455;-60
2022/08/06 01:04:12;;;;;;;15.50;10.40;;;;;;;22.75;67.77;99261.13;25087;1312;3052574;-63
2022/08/06 01:06:42;;;;;;;24.10;11.60;;;;;;;22.51;68.41;99264.70;25130;1312;3028742;-65
2022/08/06 01:09:11;;;;;;;21.00;11.60;;;;;;;22.28;68.87;99262.50;25069;1312;3026390;-68
2022/08/06 01:11:40;;;;;;;22.80;12.00;;;;;;;22.09;69.04;99264.63;25127;1312;3054324;-63
2022/08/06 01:14:09;;;;;;;15.90;11.50;;;;;;;21.94;69.41;99263.64;25101;1312;3027539;-64
2022/08/06 01:16:43;;;;;;;15.40;7.90;;;;;;;21.86;69.64;99264.16;25103;1312;3048502;-65
2022/08/06 01:19:24;;;;;;;14.80;8.60;;;;;;;22.39;68.88;99262.17;25110;1312;3052699;-64
2022/08/06 01:21:53;;;;;;;15.10;10.40;;;;;;;22.85;67.44;99257.63;25128;1312;3055058;-67
2022/08/06 01:24:54;;;;;;;14.70;10.00;;;;;;;22.84;67.20;99260.31;25090;1312;3026524;-63
2022/08/06 01:27:50;;;;;;;20.50;10.80;;;;;;;22.62;67.46;99258.27;25410;1312;3052278;-61
2022/08/06 01:30:21;;;;;;;17.20;11.20;;;;;;;22.35;68.07;99256.17;25512;1312;3053654;-58
2022/08/06 01:33:12;;;;;;;23.50;12.40;;;;;;;22.13;68.32;99258.10;25414;1312;3026582;-63
2022/08/06 01:35:42;;;;;;;20.70;12.40;;;;;;;21.95;68.99;99252.51;25067;1312;3071807;-61
2022/08/06 01:38:14;;;;;;;13.50;8.40;;;;;;;21.81;69.11;99252.08;25126;1315;3026519;-59
2022/08/06 01:40:44;;;;;;;16.10;9.70;;;;;;;22.24;68.88;99255.29;25082;1312;3028682;-60
2022/08/06 01:43:14;;;;;;;15.00;10.10;;;;;;;22.60;67.61;99257.52;25087;1312;3027188;-62
2022/08/06 01:45:43;;;;;;;18.70;11.30;;;;;;;22.60;67.56;99255.49;25083;1313;3028973;-60
2022/08/06 01:48:14;;;;;;;20.10;12.00;;;;;;;22.45;67.84;99260.27;25099;1312;3027797;-63
2022/08/06 01:50:45;;;;;;;20.10;12.00;;;;;;;22.23;67.99;99259.33;25071;1314;3054551;-66
2022/08/06 01:53:19;;;;;;;16.70;11.90;;;;;;;21.97;68.67;99260.23;25112;1312;3058413;-62
2022/08/06 01:55:51;;;;;;;16.00;11.80;;;;;;;21.77;69.21;99262.52;25154;1312;3027958;-60
2022/08/06 01:58:27;;;;;;;20.50;11.90;;;;;;;21.63;69.48;99264.71;25133;1311;3026872;-63
2022/08/06 02:01:00;;;;;;;18.90;9.00;;;;;;;21.57;69.97;99270.02;25133;1312;3051030;-64
2022/08/06 02:03:42;;;;;;;17.30;8.80;;;;;;;22.16;69.03;99267.59;25092;1312;3026668;-69
2022/08/06 02:06:12;;;;;;;16.40;10.00;;;;;;;22.64;67.80;99267.23;25134;1312;3051076;-61
2022/08/06 02:08:41;;;;;;;19.60;11.50;;;;;;;22.64;67.39;99269.73;25042;1313;3026670;-69
2022/08/06 02:11:10;;;;;;;17.80;11.70;;;;;;;22.46;67.51;99270.52;25091;1312;3069367;-68
2022/08/06 02:13:40;;;;;;;22.80;12.60;;;;;;;22.25;67.97;99271.70;25092;1312;3026444;-67
2022/08/06 02:16:09;;;;;;;21.10;12.50;;;;;;;22.04;68.67;99261.58;25090;1312;3053244;-66
2022/08/06 02:18:40;;;;;;;20.60;12.40;;;;;;;21.83;69.29;99266.77;25096;1312;3026166;-63
2022/08/06 02:21:14;;;;;;;16.90;9.10;;;;;;;21.64;70.26;99268.32;25139;1312;3027035;-66
2022/08/06 02:23:43;;;;;;;;;;;;;;;22.07;69.83;99265.70;25088;1312;3055779;-67
2022/08/06 02:26:12;;;;;;;17.40;10.40;;;;;;;22.33;68.87;99263.78;25103;1312;3027083;-67
2022/08/06 02:28:41;;;;;;;17.10;10.50;;;;;;;22.40;68.80;99265.98;25057;1312;3048055;-66
2022/08/06 02:31:10;;;;;;;20.20;11.60;;;;;;;22.25;68.73;99263.90;25069;1312;3026513;-62
2022/08/06 02:33:39;;;;;;;20.20;11.70;;;;;;;22.05;69.11;99266.48;25111;1312;3026269;-67
2022/08/06 02:36:09;;;;;;;17.40;11.60;;;;;;;21.87;69.60;99263.47;25082;1312;3048367;-66
2022/08/06 02:38:53;;;;;;;16.00;11.80;;;;;;;21.67;70.06;99261.59;25150;1312;3026931;-63
2022/08/06 02:41:45;;;;;;;12.90;9.00;;;;;;;21.52;70.97;99262.14;25123;1312;3052434;-68
2022/08/06 02:45:05;;;;;;;14.30;9.30;;;;;;;22.21;69.71;99260.04;25131;1312;3056614;-65
2022/08/06 02:47:47;;;;;;;20.90;10.30;;;;;;;22.57;68.11;99259.29;25058;1312;3052190;-60
2022/08/06 02:50:17;;;;;;;17.10;10.90;;;;;;;22.44;68.09;99259.66;25136;1312;3051790;-63
2022/08/06 02:52:55;;;;;;;20.90;12.00;;;;;;;22.26;68.27;99260.21;25060;1312;3028605;-62
2022/08/06 02:55:26;;;;;;;24.40;11.70;;;;;;;22.09;68.46;99255.56;25117;1312;3070917;-62
2022/08/06 02:57:58;;;;;;;18.90;12.30;;;;;;;21.93;68.92;99257.63;25108;1312;3026566;-63
2022/08/06 03:00:27;;;;;;;18.60;12.40;;;;;;;21.74;69.79;99252.63;25079;1312;3026853;-65
2022/08/06 03:02:58;;;;;;;13.30;8.70;;;;;;;21.63;70.57;99255.83;25144;1312;3026914;-64
2022/08/06 03:05:27;;;;;;;17.00;8.50;;;;;;;22.18;69.59;99249.59;25119;1315;3048659;-63
2022/08/06 03:07:56;;;;;;;16.10;10.10;;;;;;;22.67;67.93;99254.76;25095;1315;3026360;-63
2022/08/06 03:10:26;;;;;;;19.10;10.00;;;;;;;22.66;67.59;99256.27;25109;1312;3026737;-63
2022/08/06 03:12:55;;;;;;;19.70;11.20;;;;;;;22.55;67.81;99261.95;25096;1313;3048100;-60
2022/08/06 03:15:24;;;;;;;18.10;11.20;;;;;;;22.35;68.10;99264.78;25117;1312;3026664;-64
2022/08/06 03:17:58;;;;;;;19.30;11.50;;;;;;;22.13;68.89;99267.36;25133;1312;3070859;-61
2022/08/06 03:20:27;;;;;;;17.30;12.40;;;;;;;21.95;69.63;99268.49;25139;1312;3051528;-63
2022/08/06 03:22:59;;;;;;;12.70;8.30;;;;;;;21.88;69.75;99270.69;25078;1312;3029601;-68
2022/08/06 03:25:28;;;;;;;17.90;9.50;;;;;;;22.40;69.03;99269.70;25134;1312;3070258;-64
2022/08/06 03:27:58;;;;;;;14.60;10.60;;;;;;;22.83;67.38;99274.11;25095;1312;3026588;-59
2022/08/06 03:30:27;;;;;;;17.10;11.50;;;;;;;22.88;67.28;99276.21;25151;1312;3030886;-58
2022/08/06 03:32:56;;;;;;;16.00;11.90;;;;;;;22.76;67.63;99277.06;25104;1311;3026784;-66
2022/08/06 03:35:26;;;;;;;19.60;11.80;;;;;;;22.61;68.05;99276.11;25165;1312;3048089;-61
2022/08/06 03:37:55;;;;;;;18.40;12.60;;;;;;;22.52;68.19;99281.36;25102;1312;3026407;-60
2022/08/06 03:40:24;;;;;;;17.40;12.10;;;;;;;22.43;68.47;99283.00;25113;1312;3027289;-61
2022/08/06 03:42:53;;;;;;;19.70;11.80;;;;;;;22.36;68.41;99280.33;25062;1312;3051111;-64
2022/08/06 03:45:23;;;;;;;16.80;7.70;;;;;;;22.35;68.71;99280.98;25108;1312;3026555;-64
2022/08/06 03:47:54;;;;;;;17.80;9.40;;;;;;;22.91;67.32;99282.52;25104;1312;3070842;-63
2022/08/06 03:50:30;;;;;;;18.00;10.50;;;;;;;23.41;65.83;99275.27;25078;1312;3030099;-61
2022/08/06 03:53:03;;;;;;;14.10;9.20;;;;;;;23.50;65.26;99271.23;25084;1312;3051220;-62
2022/08/06 03:55:34;;;;;;;16.40;11.60;;;;;;;23.36;65.28;99273.54;25077;1312;3055598;-64
2022/08/06 03:58:09;;;;;;;18.70;11.50;;;;;;;23.17;65.85;99276.16;25124;1313;3026605;-62
2022/08/06 04:00:51;;;;;;;19.50;11.30;;;;;;;23.04;66.28;99273.09;25089;1312;3048463;-64
2022/08/06 04:03:20;;;;;;;24.50;11.80;;;;;;;22.94;66.46;99275.17;25085;1312;3053610;-62
2022/08/06 04:05:50;;;;;;;20.40;12.00;;;;;;;22.84;66.59;99272.88;25109;1312;3026280;-60
2022/08/06 04:08:19;;;;;;;20.40;12.10;;;;;;;22.75;66.88;99271.09;25075;1313;3026776;-60
2022/08/06 04:10:48;;;;;;;17.20;11.80;;;;;;;22.73;66.79;99265.60;25100;1312;3055271;-63
2022/08/06 04:13:19;;;;;;;17.80;8.20;;;;;;;22.78;66.55;99267.07;25117;1312;3027936;-63
2022/08/06 04:15:49;;;;;;;15.50;8.90;;;;;;;23.40;65.11;99262.54;25101;1312;3026246;-63
2022/08/06 04:18:37;;;;;;;19.80;10.30;;;;;;;23.98;63.60;99262.08;25130;1311;3027226;-65
2022/08/06 04:21:10;;;;;;;15.40;10.30;;;;;;;23.99;62.54;99263.98;25073;1312;3054924;-61
2022/08/06 04:23:39;;;;;;;18.70;11.30;;;;;;;23.80;63.20;99262.36;25101;1312;3026860;-65
2022/08/06 04:26:08;;;;;;;19.20;11.40;;;;;;;23.61;63.95;99259.91;25103;1312;3026500;-66
2022/08/06 04:28:40;;;;;;;15.50;11.80;;;;;;;23.33;64.82;99261.97;25111;1312;3054567;-63
2022/08/06 04:31:09;;;;;;;16.80;11.90;;;;;;;23.13;65.32;99265.99;25047;1312;3027516;-67
2022/08/06 04:33:38;;;;;;;18.20;12.30;;;;;;;23.08;65.56;99263.61;25120;1312;3027173;-65
2022/08/06 04:36:08;;;;;;;20.40;12.90;;;;;;;22.99;65.74;99266.55;25112;1312;3053624;-63
2022/08/06 04:38:37;;;;;;;21.10;13.30;;;;;;;22.91;65.89;99270.91;25133;1312;3026399;-67
2022/08/06 04:41:06;;;;;;;19.10;13.20;;;;;;;22.78;66.76;99272.27;25104;1312;3026694;-62
2022/08/06 04:43:35;;;;;;;16.60;9.80;;;;;;;22.74;66.83;99277.34;25100;1312;3056041;-64
2022/08/06 04:46:04;;;;;;;14.00;10.60;;;;;;;23.26;65.66;99270.83;25105;1312;3026936;-62
2022/08/06 04:48:34;;;;;;;20.10;12.20;;;;;;;23.75;64.33;99270.52;25093;1312;3051186;-63
2022/08/06 04:51:04;;;;;;;22.30;12.70;;;;;;;23.88;63.65;99270.96;25065;1312;3026141;-69
2022/08/06 04:53:38;;;;;;;19.40;13.90;;;;;;;23.78;63.78;99275.21;25077;1312;3026850;-69
2022/08/06 04:56:07;;;;;;;21.60;14.50;;;;;;;23.62;64.37;99275.64;25081;1311;3056760;-64
2022/08/06 04:58:36;;;;;;;21.10;13.80;;;;;;;23.44;65.15;99278.52;25129;1312;3026472;-62
2022/08/06 05:01:05;;;;;;;20.50;14.50;;;;;;;23.29;65.66;99285.48;25091;1312;3026949;-60
2022/08/06 05:03:34;;;;;;;26.40;15.20;;;;;;;23.27;65.65;99283.77;25095;1312;3058623;-67
2022/08/06 05:06:10;;;;;;;20.90;15.50;;;;;;;23.27;65.51;99276.39;25052;1312;3026024;-64
2022/08/06 05:08:40;;;;;;;23.80;15.90;;;;;;;23.24;65.60;99277.62;25079;1312;3055395;-67
2022/08/06 05:11:21;;;;;;;22.30;16.20;;;;;;;23.19;65.72;99274.31;25120;1312;3026529;-64
2022/08/06 05:13:54;;;;;;;21.20;11.10;;;;;;;23.17;65.97;99272.41;25072;1312;3052116;-64
2022/08/06 05:16:23;;;;;;;19.50;13.20;;;;;;;23.86;64.52;99265.77;25050;1312;3026408;-61
2022/08/06 05:18:58;;;;;;;18.40;12.20;;;;;;;24.36;62.82;99268.44;25105;1315;3026607;-64
2022/08/06 05:21:32;;;;;;;21.20;13.90;;;;;;;24.44;62.10;99271.14;25089;1312;3051963;-65
2022/08/06 05:24:00;;;;;;;25.10;15.30;;;;;;;24.37;62.21;99276.25;25070;1312;3053693;-63
2022/08/06 05:26:29;;;;;;;25.50;15.50;;;;;;;24.14;63.15;99279.35;25118;1312;3026323;-64
2022/08/06 05:28:58;;;;;;;22.80;15.30;;;;;;;24.06;63.61;99284.30;25057;1312;3051334;-64
2022/08/06 05:31:32;;;;;;;27.80;15.70;;;;;;;23.97;64.16;99283.82;25096;1312;3026508;-65
2022/08/06 05:34:02;;;;;;;26.70;16.80;;;;;;;23.91;64.49;99283.31;25061;1312;3055928;-64
2022/08/06 05:36:31;;;;;;;28.20;17.10;;;;;;;23.87;64.45;99283.89;25072;1312;3026502;-63
2022/08/06 05:39:00;;;;;;;24.80;16.60;;;;;;;23.87;64.43;99284.77;25100;1312;3026528;-67
2022/08/06 05:41:29;;;;;;;27.00;17.20;;;;;;;23.88;64.71;99278.17;25065;1312;3058224;-64
2022/08/06 05:44:01;;;;;;;27.60;17.30;;;;;;;23.84;64.95;99277.56;25102;1312;3026729;-65
2022/08/06 05:46:33;;;;;;;25.90;14.90;;;;;;;23.83;64.87;99277.71;25142;1312;3053794;-63
2022/08/06 05:49:10;;;;;;;16.00;11.90;;;;;;;23.79;65.44;99279.70;25105;1312;3026681;-69
2022/08/06 05:51:47;;;;;;;17.70;13.80;;;;;;;24.47;64.13;99268.60;25223;1312;3049382;-62
2022/08/06 05:54:56;;;;;;;23.40;14.00;;;;;;;24.83;63.21;99268.17;25190;1312;3053405;-66
2022/08/06 05:57:41;;;;;;;22.20;15.30;;;;;;;24.92;62.29;99267.52;25135;1312;3052022;-65
2022/08/06 06:00:12;;;;;;;20.50;15.50;;;;;;;24.83;62.79;99271.19;25159;1312;3068959;-66
2022/08/06 06:02:43;;;;;;;23.30;15.50;;;;;;;24.69;63.39;99266.48;25135;1312;3026933;-65
2022/08/06 06:05:12;;;;;;;20.90;14.80;;;;;;;24.62;63.18;99266.08;25086;1312;3026446;-65
2022/08/06 06:07:42;;;;;;;23.80;16.10;;;;;;;24.59;63.79;99266.00;25093;1312;3026531;-65
2022/08/06 06:10:12;;;;;;;21.80;15.20;;;;;;;24.48;63.84;99267.17;25074;1312;3051038;-63
2022/08/06 06:12:42;;;;;;;22.90;15.30;;;;;;;24.43;64.08;99270.09;25105;1312;3026324;-65
2022/08/06 06:15:12;;;;;;;19.10;14.80;;;;;;;24.40;64.10;99267.34;25054;1312;3027241;-68
2022/08/06 06:18:07;;;;;;;23.20;15.60;;;;;;;24.44;64.00;99265.52;25135;1312;3049327;-63
2022/08/06 06:20:43;;;;;;;;;;;;;;;24.46;63.62;99268.47;25142;1312;3054896;-63
2022/08/06 06:23:19;;;;;;;20.30;14.20;;;;;;;24.43;63.56;99269.92;25096;1312;3055163;-63
2022/08/06 06:26:06;;;;;;;25.70;14.20;;;;;;;24.43;63.66;99272.79;25128;1312;3056488;-61
2022/08/06 06:28:54;;;;;;;28.80;14.30;;;;;;;24.44;64.07;99272.33;25109;1312;3052370;-62
2022/08/06 06:31:50;;;;;;;18.20;10.50;;;;;;;24.52;63.57;99269.74;25079;1312;3055870;-63
2022/08/06 06:34:40;;;;;;;30.60;12.60;;;;;;;25.38;60.72;99273.86;25184;1312;3051158;-62
2022/08/06 06:37:54;;;;;;;19.80;12.20;;;;;;;25.86;59.29;99275.27;25114;1312;3070842;-65
2022/08/06 06:40:48;;;;;;;21.40;13.50;;;;;;;25.91;59.09;99273.77;24988;1317;3049760;-63
2022/08/06 06:58:17;;;;;;;25.70;15.10;;;;;;;25.18;61.23;99274.05;31394;1319;3026467;-58
2022/08/06 07:00:47;;;;;;;22.00;15.10;;;;;;;25.38;60.63;99277.27;24889;1319;3028459;-59
2022/08/06 07:03:17;;;;;;;22.80;13.70;;;;;;;25.56;60.02;99274.48;25046;1319;3026048;-58
2022/08/06 07:05:47;;;;;;;30.30;14.10;;;;;;;25.50;60.49;99279.19;25063;1319;3026548;-60
2022/08/06 07:08:18;;;;;;;18.90;13.00;;;;;;;25.49;60.58;99280.04;25054;1319;3026912;-58
2022/08/06 07:10:44;;;;;;;18.90;13.00;;;;;;;25.48;60.35;99280.45;23713;1317;5528051;-58
2022/08/06 07:13:14;;;;;;;24.60;15.10;;;;;;;25.69;60.02;99280.56;25049;1316;3057506;-59
2022/08/06 07:15:43;;;;;;;20.80;13.20;;;;;;;25.89;59.16;99279.66;25043;1316;3026989;-59
2022/08/06 07:18:12;;;;;;;28.20;13.70;;;;;;;25.85;59.48;99280.55;25077;1316;3026509;-55
2022/08/06 07:20:41;;;;;;;23.90;13.80;;;;;;;25.88;59.75;99286.16;25026;1319;3058868;-58
2022/08/06 07:23:10;;;;;;;27.80;13.90;;;;;;;25.89;59.78;99284.06;25065;1319;3026859;-63
2022/08/06 07:25:41;;;;;;;27.80;14.20;;;;;;;25.93;60.21;99283.08;25017;1319;3026797;-61
2022/08/06 07:28:11;;;;;;;22.80;13.70;;;;;;;25.98;59.60;99281.34;25100;1316;3058776;-58
2022/08/06 07:30:40;;;;;;;22.80;12.90;;;;;;;26.06;59.24;99276.06;25107;1316;3026569;-62
2022/08/06 07:33:10;;;;;;;26.20;13.40;;;;;;;26.09;59.10;99277.66;25172;1319;3026674;-59
2022/08/06 07:35:40;;;;;;;27.10;13.70;;;;;;;26.15;59.13;99270.73;25131;1316;3027154;-57
2022/08/06 07:38:09;;;;;;;20.70;13.20;;;;;;;26.23;58.95;99276.54;25041;1316;3026744;-57
2022/08/06 07:40:42;;;;;;;19.60;12.00;;;;;;;26.27;58.93;99275.64;24931;1317;3026055;-59
2022/08/06 07:43:20;;;;;;;21.80;13.90;;;;;;;26.31;59.04;99280.84;24980;1319;3026833;-58
2022/08/06 07:45:50;;;;;;;25.70;13.40;;;;;;;26.37;58.67;99274.86;25018;1319;3055299;-58
2022/08/06 07:48:36;;;;;;;26.20;13.90;;;;;;;26.33;58.60;99278.45;25067;1317;3026511;-58
2022/08/06 07:51:05;;;;;;;26.20;13.30;;;;;;;26.39;58.76;99280.00;25122;1316;3051905;-58
2022/08/06 07:53:37;;;;;;;26.10;15.00;;;;;;;26.45;58.58;99278.83;24943;1319;3026924;-62
2022/08/06 07:56:06;;;;;;;28.10;13.90;;;;;;;26.48;58.83;99282.58;25090;1319;3056148;-56
2022/08/06 07:58:36;;;;;;;26.30;14.10;;;;;;;26.58;58.80;99282.19;25054;1319;3028720;-55
2022/08/06 08:01:05;;;;;;;23.60;14.20;;;;;;;26.62;58.56;99281.25;25022;1319;3026393;-59
2022/08/06 08:06:24;;;;;;;20.60;12.90;;;;;;;26.67;58.34;99280.20;25004;1319;3052975;-56
2022/08/06 08:09:02;;;;;;;26.50;13.70;;;;;;;26.73;58.07;99269.16;25056;1316;3026628;-59
2022/08/06 08:11:32;;;;;;;23.90;13.60;;;;;;;26.78;58.50;99273.29;25086;1316;3050617;-57
2022/08/06 08:14:02;;;;;;;27.20;14.80;;;;;;;26.88;58.32;99274.17;25057;1316;3026570;-57
2022/08/06 08:16:31;;;;;;;19.10;12.80;;;;;;;26.95;58.25;99272.37;25099;1316;3026864;-58
2022/08/06 08:19:00;;;;;;;25.50;13.80;;;;;;;27.05;58.59;99273.96;25022;1316;3026057;-58
2022/08/06 08:21:29;;;;;;;26.00;12.90;;;;;;;27.13;58.32;99274.05;25062;1316;3070080;-57
2022/08/06 08:23:58;;;;;;;23.60;12.70;;;;;;;27.12;57.81;99276.73;25026;1316;3026916;-57
2022/08/06 08:26:27;;;;;;;16.90;12.70;;;;;;;27.18;57.30;99273.02;25143;1313;3049603;-58
2022/08/06 08:28:57;;;;;;;26.30;13.90;;;;;;;27.23;57.26;99267.50;25069;1312;3026500;-58
2022/08/06 08:31:26;;;;;;;19.50;13.50;;;;;;;27.25;57.44;99267.46;25125;1313;3026651;-59
2022/08/06 08:33:55;;;;;;;22.40;13.40;;;;;;;27.33;57.40;99269.33;25103;1313;3052280;-59
2022/08/06 08:36:24;;;;;;;23.20;13.80;;;;;;;27.49;57.22;99269.90;25131;1313;3027084;-58
2022/08/06 08:38:56;;;;;;;26.00;13.80;;;;;;;27.49;56.37;99268.48;25050;1312;3055176;-57
2022/08/06 08:41:26;;;;;;;19.40;13.10;;;;;;;27.50;56.39;99266.13;25143;1313;3026848;-57
2022/08/06 08:44:03;;;;;;;28.60;14.00;;;;;;;27.53;56.99;99266.20;25079;1313;3027061;-56
2022/08/06 08:46:35;;;;;;;22.60;14.30;;;;;;;27.49;57.33;99274.34;25075;1313;3049486;-57
2022/08/06 08:49:05;;;;;;;28.40;14.00;;;;;;;27.47;56.81;99276.46;25119;1312;3026702;-59
2022/08/06 08:51:40;;;;;;;23.10;13.00;;;;;;;27.49;56.62;99278.58;25150;1313;3027013;-58
2022/08/06 08:54:10;;;;;;;22.00;13.90;;;;;;;27.55;56.28;99282.02;25076;1315;3058636;-59
2022/08/06 08:56:41;;;;;;;24.50;13.60;;;;;;;27.70;56.22;99279.67;25035;1312;3026391;-57
2022/08/06 08:59:09;;;;;;;22.80;13.40;;;;;;;27.81;55.87;99284.92;25117;1315;3026514;-58
2022/08/06 09:01:38;;;;;;;22.00;13.20;;;;;;;27.93;55.10;99283.29;25085;1312;3058254;-58
2022/08/06 09:04:08;;;;;;;25.90;13.00;;;;;;;28.00;54.64;99283.08;25160;1313;3026665;-59
2022/08/06 09:06:38;;;;;;;24.70;13.30;;;;;;;28.08;54.65;99284.80;25120;1310;3054154;-62
2022/08/06 09:09:07;;;;;;;20.70;12.70;;;;;;;28.18;54.42;99286.45;25078;1313;3026862;-62
2022/08/06 09:11:36;;;;;;;23.50;12.40;;;;;;;28.28;53.88;99284.59;25115;1312;3052292;-58
2022/08/06 09:14:07;;;;;;;23.10;13.40;;;;;;;28.37;53.54;99285.96;25102;1313;3026685;-61
2022/08/06 09:16:36;;;;;;;22.50;13.50;;;;;;;28.44;53.65;99287.30;25109;1313;3026886;-64
2022/08/06 09:19:06;;;;;;;23.90;14.00;;;;;;;28.56;53.38;99283.38;25141;1313;3026381;-59
2022/08/06 09:21:35;;;;;;;23.60;13.50;;;;;;;28.68;53.50;99283.45;25081;1313;3054471;-58
2022/08/06 09:24:04;;;;;;;19.90;12.20;;;;;;;28.78;53.24;99284.64;25189;1312;3027111;-59
2022/08/06 09:26:33;;;;;;;28.80;14.20;;;;;;;28.88;53.21;99281.88;25110;1313;3054770;-58
2022/08/06 09:29:14;;;;;;;23.60;12.80;;;;;;;29.02;52.52;99286.45;25095;1313;3026929;-57
2022/08/06 09:31:43;;;;;;;20.00;12.80;;;;;;;29.13;52.94;99286.49;25052;1313;3051702;-56
2022/08/06 09:34:12;;;;;;;26.80;13.30;;;;;;;29.11;52.60;99289.59;25139;1313;3026645;-58
2022/08/06 09:36:42;;;;;;;30.90;13.30;;;;;;;29.13;52.21;99286.54;25056;1313;3070799;-58
2022/08/06 09:39:12;;;;;;;21.30;13.40;;;;;;;29.18;52.22;99291.25;25148;1313;3026803;-60
2022/08/06 09:41:48;;;;;;;23.90;12.70;;;;;;;29.30;52.58;99293.73;25091;1313;3026799;-57
2022/08/06 09:44:17;;;;;;;19.90;13.30;;;;;;;29.41;51.74;99293.56;25092;1313;3054853;-59
2022/08/06 09:46:47;;;;;;;20.90;12.90;;;;;;;29.52;51.67;99292.60;25182;1312;3026757;-58
2022/08/06 09:49:17;;;;;;;23.00;12.70;;;;;;;29.60;51.77;99293.85;25110;1313;3051817;-62
2022/08/06 09:51:47;;;;;;;21.00;13.70;;;;;;;29.72;51.05;99291.88;25099;1313;3026516;-58
2022/08/06 09:54:15;;;;;;;21.40;12.30;;;;;;;29.83;50.94;99286.92;25134;1313;3026205;-60
2022/08/06 09:56:45;;;;;;;22.50;11.90;;;;;;;29.91;50.91;99287.89;25089;1313;3054319;-59
2022/08/06 09:59:14;;;;;;;22.30;12.90;;;;;;;30.04;50.43;99284.66;25111;1313;3026404;-60
2022/08/06 10:01:46;;;;;;;20.70;12.60;;;;;;;30.17;50.04;99283.52;25122;1313;3026581;-57
2022/08/06 10:04:26;;;;;;;28.00;12.20;;;;;;;30.20;49.52;99287.11;25203;1312;3051315;-61
2022/08/06 10:06:58;;;;;;;18.40;11.40;;;;;;;30.29;48.63;99288.58;25131;1313;3052139;-60
2022/08/06 10:09:31;;;;;;;20.70;11.60;;;;;;;30.28;47.86;99290.85;25114;1313;3026568;-59
2022/08/06 10:12:00;;;;;;;19.10;11.30;;;;;;;30.43;47.92;99287.96;25044;1313;3026391;-58
2022/08/06 10:14:31;;;;;;;22.30;12.10;;;;;;;30.58;47.93;99282.80;25133;1313;3027463;-58
2022/08/06 10:17:03;;;;;;;18.40;11.00;;;;;;;30.60;47.32;99287.64;25108;1313;3026783;-57
2022/08/06 10:19:33;;;;;;;17.00;11.00;;;;;;;30.64;47.51;99290.17;25099;1313;3029814;-59
2022/08/06 10:22:06;;;;;;;18.20;11.00;;;;;;;30.80;47.24;99288.75;25153;1313;3026862;-58
2022/08/06 10:24:39;;;;;;;17.90;11.20;;;;;;;30.90;46.78;99288.11;25166;1313;3054836;-60
2022/08/06 10:27:13;;;;;;;23.50;12.00;;;;;;;30.93;46.34;99289.86;25113;1313;3029623;-62
2022/08/06 10:29:45;;;;;;;18.70;10.50;;;;;;;31.04;46.41;99292.44;25110;1313;3054627;-58
2022/08/06 10:32:16;;;;;;;22.30;11.80;;;;;;;31.05;46.12;99290.37;25147;1313;3027968;-55
2022/08/06 10:34:45;;;;;;;22.80;10.20;;;;;;;31.07;45.94;99291.73;25117;1313;3027173;-58
2022/08/06 10:37:15;;;;;;;23.80;10.60;;;;;;;31.14;45.60;99291.79;25087;1313;3026706;-58
2022/08/06 10:39:46;;;;;;;20.00;10.60;;;;;;;31.26;45.57;99290.19;25089;1313;3026974;-60
2022/08/06 10:42:15;;;;;;;18.60;10.90;;;;;;;31.28;45.57;99290.36;25176;1313;3028163;-59
2022/08/06 10:44:44;;;;;;;18.40;11.20;;;;;;;31.31;45.74;99292.81;25079;1313;3026782;-59
2022/08/06 10:47:14;;;;;;;23.30;10.90;;;;;;;31.39;44.73;99288.06;25097;1313;3071036;-61
2022/08/06 10:49:43;;;;;;;24.00;10.70;;;;;;;31.44;44.17;99288.84;25075;1313;3026903;-59
2022/08/06 10:52:13;;;;;;;14.70;11.10;;;;;;;31.53;44.36;99292.21;25094;1313;3052352;-58
2022/08/06 10:54:41;;;;;;;22.40;11.20;;;;;;;31.53;44.87;99289.70;25178;1312;3026734;-55
2022/08/06 10:57:12;;;;;;;17.80;11.50;;;;;;;31.66;44.73;99292.26;25021;1315;3055197;-59
2022/08/06 10:59:41;;;;;;;23.70;11.30;;;;;;;31.79;44.55;99288.65;25096;1314;3026385;-59
2022/08/06 11:02:23;;;;;;;20.50;11.30;;;;;;;31.79;44.92;99287.94;25093;1313;3026359;-57
2022/08/06 11:05:00;;;;;;;19.50;12.60;;;;;;;31.87;44.77;99285.95;25141;1315;3053204;-60
2022/08/06 11:07:45;;;;;;;20.10;12.40;;;;;;;31.95;44.60;99280.15;25061;1312;3026525;-60
2022/08/06 11:10:30;;;;;;;26.90;12.90;;;;;;;31.95;45.08;99282.64;25068;1312;3069505;-59
2022/08/06 11:13:12;;;;;;;23.00;12.80;;;;;;;32.08;44.53;99278.04;25116;1315;3048904;-60
2022/08/06 11:15:42;;;;;;;19.20;11.80;;;;;;;32.05;44.61;99282.47;25029;1313;3052898;-59
2022/08/06 11:18:11;;;;;;;17.40;12.30;;;;;;;32.24;43.93;99277.52;25100;1312;3027163;-60
2022/08/06 11:20:45;;;;;;;22.30;13.30;;;;;;;32.32;44.14;99277.30;25049;1313;3026890;-60
2022/08/06 11:23:14;;;;;;;24.10;13.40;;;;;;;32.26;44.34;99274.73;25090;1312;3052931;-57
2022/08/06 11:25:50;;;;;;;20.30;12.30;;;;;;;32.32;43.93;99274.15;25068;1315;3026226;-55
2022/08/06 11:28:32;;;;;;;18.50;12.20;;;;;;;32.35;43.90;99270.42;25065;1312;3058925;-57
2022/08/06 11:31:03;;;;;;;18.40;12.00;;;;;;;32.45;43.63;99271.75;25070;1312;3051708;-56
2022/08/06 11:33:52;;;;;;;20.60;11.50;;;;;;;32.46;43.34;99272.36;25126;1312;3027022;-59
2022/08/06 11:36:24;;;;;;;19.60;11.50;;;;;;;32.39;42.84;99274.23;25070;1312;3054353;-58
2022/08/06 11:38:53;;;;;;;17.40;11.50;;;;;;;32.37;42.77;99268.33;25094;1312;3026515;-58
2022/08/06 11:41:27;;;;;;;15.50;10.40;;;;;;;32.41;42.05;99269.99;25053;1312;3026456;-58
2022/08/06 11:43:59;;;;;;;15.30;9.70;;;;;;;32.60;41.27;99267.95;25119;1313;3052511;-59